Purlear, North Carolina
Current Conditions -  °F | °C
As of 12:55 PM on Tuesday 21 Oct 2014 (Local Time) from KUKF Reporting Station
Broken Clouds Broken Clouds  
Wind Chill: 63°   Ceiling: 7000
Heat Index: 63°   Visibility: 10mi
Dew Point: 45°   Wind: 3mph
Humidity: 52%   Direction: 230°SW
Pressure: 29.98"   Gusts: NA
Location:  36.18°N, 81.28°W
Report Text: KUKF 211655Z AUTO 23003KT 10SM SCT046 SCT050 BKN070 17/07 A2998 RMK AO2
Loading
Personal Weather Stations






























Interactive Weather Map
Tropical Storm Tracking
New forecast layout! Learn more

10-Day Weather Forecast

Advertisements
Track Severe Weather on mobile